Time;durP1;ratioP1;P1;durP2;ratioP2;P2;SDS_P1;SDS_P2;PMS_P1;PMS_P2;Temp;Humidity;BMP_temperature;BMP_pressure;BME280_temperature;BME280_humidity;BME280_pressure;Samples;Min_cycle;Max_cycle;Signal;HPM_P1;HPM_P2
2022/05/01 05:58:07;;;;;;;2.22;2.03;;;;;;;;;;5288180;23;20264;-77
2022/05/01 06:00:32;;;;;;;2.78;2.47;;;;;;;;;;4903316;29;20037;-78
2022/05/01 06:02:58;;;;;;;3.63;2.95;;;;;;;;;;4898627;29;20506;-82
2022/05/01 06:05:23;;;;;;;2.92;2.03;;;;;;;;;;4898745;29;20514;-81
2022/05/01 06:07:49;;;;;;;4.65;1.55;;;;;;;;;;4898849;29;20055;-78
2022/05/01 06:10:14;;;;;;;1.88;1.77;;;;;;;;;;4898769;29;20029;-81
2022/05/01 06:12:41;;;;;;;3.55;1.83;;;;;;;;;;4898641;29;20432;-82
2022/05/01 06:15:07;;;;;;;2.08;1.73;;;;;;;;;;4898692;29;20036;-78
2022/05/01 10:15:14;;;;;;;2.28;1.48;;;;;;;;;;4907792;29;20143;-85
2022/05/01 10:17:41;;;;;;;1.67;1.58;;;;;;;;;;4898602;29;20066;-81
2022/05/01 10:20:07;;;;;;;1.75;1.23;;;;;;;;;;4898550;29;20168;-84
2022/05/01 10:22:35;;;;;;;1.85;1.40;;;;;;;;;;4898295;29;20028;-82
2022/05/01 10:25:03;;;;;;;1.50;1.27;;;;;;;;;;4898430;29;20047;-81
2022/05/01 10:27:37;;;;;;;1.30;1.20;;;;;;;;;;4898397;29;20468;-83
2022/05/01 10:33:23;;;;;;;1.33;1.17;;;;;;;;;;4898427;29;20039;-82
2022/05/01 10:36:19;;;;;;;1.08;1.00;;;;;;;;;;4898624;29;20028;-81
2022/05/01 10:38:56;;;;;;;1.13;1.02;;;;;;;;;;4898372;29;20029;-84
2022/05/01 10:41:22;;;;;;;2.67;1.23;;;;;;;;;;4898148;29;20028;-84
2022/05/01 10:43:58;;;;;;;0.95;0.95;;;;;;;;;;4897837;29;20028;-80
2022/05/01 10:46:31;;;;;;;0.63;0.63;;;;;;;;;;4879464;29;20044;-81
2022/05/01 10:49:02;;;;;;;1.17;0.82;;;;;;;;;;4879806;29;20021;-81
2022/05/01 10:51:27;;;;;;;1.40;1.30;;;;;;;;;;4879505;29;20469;-81
2022/05/01 10:54:13;;;;;;;1.50;1.40;;;;;;;;;;4878270;29;20036;-82
2022/05/01 10:56:39;;;;;;;1.08;0.98;;;;;;;;;;4879544;29;20380;-81
2022/05/01 10:59:31;;;;;;;1.02;0.90;;;;;;;;;;4878402;29;20062;-86
2022/05/01 11:01:58;;;;;;;1.23;1.13;;;;;;;;;;4877429;29;20480;-82
2022/05/01 11:04:24;;;;;;;0.90;0.90;;;;;;;;;;4879486;29;20037;-81
2022/05/01 11:06:57;;;;;;;0.90;0.90;;;;;;;;;;4879409;29;20489;-81
2022/05/01 11:09:24;;;;;;;2.00;1.25;;;;;;;;;;4890066;29;20029;-81
2022/05/01 11:11:55;;;;;;;1.45;0.90;;;;;;;;;;4898149;29;20028;-82
2022/05/01 11:14:39;;;;;;;0.98;0.98;;;;;;;;;;4898439;29;20348;-82
2022/05/01 11:17:05;;;;;;;1.75;1.15;;;;;;;;;;4901293;29;20033;-81
2022/05/01 11:19:45;;;;;;;1.77;1.00;;;;;;;;;;4900325;29;20032;-82
2022/05/01 11:22:12;;;;;;;1.60;1.38;;;;;;;;;;4915984;29;20036;-81
2022/05/01 11:24:44;;;;;;;1.60;1.20;;;;;;;;;;4901850;29;20169;-83
2022/05/01 11:27:10;;;;;;;0.93;0.93;;;;;;;;;;4901328;29;20127;-84
2022/05/01 11:29:35;;;;;;;1.95;1.30;;;;;;;;;;4901476;29;20585;-81
2022/05/01 11:32:20;;;;;;;1.23;1.23;;;;;;;;;;4901444;29;20029;-81
2022/05/01 11:34:50;;;;;;;1.50;1.40;;;;;;;;;;4901604;29;20036;-82
2022/05/01 11:37:17;;;;;;;3.83;1.52;;;;;;;;;;4901347;29;20495;-82
2022/05/01 11:39:51;;;;;;;1.25;1.13;;;;;;;;;;4901437;29;20096;-81
2022/05/01 11:42:26;;;;;;;1.42;1.33;;;;;;;;;;4900019;29;20486;-81
2022/05/01 11:44:55;;;;;;;1.38;1.27;;;;;;;;;;4901417;29;20035;-82
2022/05/01 11:47:41;;;;;;;1.65;1.17;;;;;;;;;;4901327;29;20033;-82
2022/05/01 11:50:15;;;;;;;1.77;1.40;;;;;;;;;;4901056;29;20059;-83
2022/05/01 11:52:44;;;;;;;2.55;1.40;;;;;;;;;;4900935;29;20153;-81
2022/05/01 11:55:10;;;;;;;1.80;1.70;;;;;;;;;;4915574;29;20036;-82
2022/05/01 12:03:07;;;;;;;2.20;2.00;;;;;;;;;;4900812;29;20599;-82
2022/05/01 12:05:43;;;;;;;2.58;2.00;;;;;;;;;;4900970;29;20028;-82
2022/05/01 12:08:09;;;;;;;1.80;1.50;;;;;;;;;;4901272;29;20036;-82
2022/05/01 12:10:43;;;;;;;1.77;1.55;;;;;;;;;;4900926;29;20025;-83
2022/05/01 12:13:18;;;;;;;1.48;1.38;;;;;;;;;;4899599;29;20072;-82
2022/05/01 12:15:44;;;;;;;2.08;1.67;;;;;;;;;;4899338;29;20492;-81
2022/05/01 12:18:10;;;;;;;1.98;1.67;;;;;;;;;;4900801;29;20047;-82
2022/05/01 12:20:35;;;;;;;1.88;1.77;;;;;;;;;;4900590;29;20039;-81
2022/05/01 12:23:01;;;;;;;3.00;1.80;;;;;;;;;;4900671;29;20077;-83
2022/05/01 12:25:26;;;;;;;1.70;1.60;;;;;;;;;;4900541;29;20104;-84
2022/05/01 12:27:52;;;;;;;2.08;1.88;;;;;;;;;;4899823;29;20029;-85
2022/05/01 12:30:21;;;;;;;2.58;2.10;;;;;;;;;;4900794;29;20032;-83
2022/05/01 12:32:54;;;;;;;3.22;2.17;;;;;;;;;;4900594;29;20031;-84
2022/05/01 12:35:20;;;;;;;2.00;1.80;;;;;;;;;;4899573;29;20041;-85
2022/05/01 12:37:48;;;;;;;2.45;1.75;;;;;;;;;;4899811;29;20120;-87
2022/05/01 12:43:50;;;;;;;2.05;1.90;;;;;;;;;;4900099;29;20032;-86
2022/05/01 12:45:51;;;;;;;2.10;1.73;;;;;;;;;;4900359;29;20047;-81
2022/05/01 12:48:18;;;;;;;1.90;1.80;;;;;;;;;;4898961;29;20025;-83
2022/05/01 12:50:45;;;;;;;2.53;1.90;;;;;;;;;;4900182;29;20029;-82
2022/05/01 12:53:29;;;;;;;2.08;1.80;;;;;;;;;;4899965;29;20025;-83
2022/05/01 12:55:57;;;;;;;2.33;1.55;;;;;;;;;;4900204;29;20032;-83
2022/05/01 12:58:30;;;;;;;2.35;1.80;;;;;;;;;;4898849;29;20032;-83
2022/05/01 13:00:56;;;;;;;1.52;1.42;;;;;;;;;;4899770;29;20092;-83
2022/05/01 13:03:37;;;;;;;1.75;1.55;;;;;;;;;;4899568;29;20457;-84
2022/05/01 13:06:14;;;;;;;2.30;1.27;;;;;;;;;;4899776;29;20028;-81
2022/05/01 13:08:53;;;;;;;2.42;1.50;;;;;;;;;;4899850;29;20041;-82
2022/05/01 13:11:30;;;;;;;2.50;1.63;;;;;;;;;;4899877;29;20069;-81
2022/05/01 13:14:00;;;;;;;1.70;1.60;;;;;;;;;;4899861;29;20033;-81
2022/05/01 13:16:32;;;;;;;1.80;1.70;;;;;;;;;;4899423;29;20131;-81
2022/05/01 13:19:01;;;;;;;2.00;1.70;;;;;;;;;;4899666;29;20093;-84
2022/05/01 13:21:28;;;;;;;1.52;1.42;;;;;;;;;;4899078;29;20029;-82
2022/05/01 13:24:09;;;;;;;2.88;1.77;;;;;;;;;;4899239;29;20503;-82
2022/05/01 13:26:36;;;;;;;2.83;1.50;;;;;;;;;;4899665;29;20040;-82
2022/05/01 13:29:07;;;;;;;1.67;1.58;;;;;;;;;;4899562;29;20028;-80
2022/05/01 13:31:33;;;;;;;1.70;1.60;;;;;;;;;;4899368;29;20436;-82
2022/05/01 13:33:59;;;;;;;2.53;1.60;;;;;;;;;;4898025;29;20048;-82
2022/05/01 13:36:24;;;;;;;1.35;1.25;;;;;;;;;;4899413;29;20087;-82
2022/05/01 13:38:50;;;;;;;1.73;1.63;;;;;;;;;;4899181;29;20048;-81
2022/05/01 13:46:43;;;;;;;3.42;1.88;;;;;;;;;;4899256;29;20043;-81
2022/05/01 13:49:09;;;;;;;1.95;1.83;;;;;;;;;;4897774;29;20032;-81
2022/05/01 13:51:34;;;;;;;3.17;1.58;;;;;;;;;;4899038;29;20073;-82
2022/05/01 13:54:00;;;;;;;1.77;1.65;;;;;;;;;;4899074;29;20107;-81
2022/05/01 13:56:26;;;;;;;2.03;1.83;;;;;;;;;;4899346;29;20039;-82
2022/05/01 13:58:52;;;;;;;3.85;1.85;;;;;;;;;;4898906;29;20048;-83
2022/05/01 14:01:18;;;;;;;1.90;1.70;;;;;;;;;;4898800;29;20033;-84
2022/05/01 14:03:45;;;;;;;2.00;1.70;;;;;;;;;;4898719;29;20080;-82
2022/05/01 16:54:37;;;;;;;2.85;2.63;;;;;;;;;;4870161;29;20061;-86
2022/05/01 16:57:07;;;;;;;3.08;2.58;;;;;;;;;;4881209;29;20041;-85
2022/05/01 16:59:33;;;;;;;3.95;3.20;;;;;;;;;;4881903;29;20035;-86
2022/05/01 17:02:24;;;;;;;3.67;2.95;;;;;;;;;;4881228;29;20025;-86
2022/05/01 17:05:41;;;;;;;2.70;2.40;;;;;;;;;;4871080;29;20045;-85
2022/05/01 17:08:18;;;;;;;2.83;2.63;;;;;;;;;;4865158;29;20037;-87
2022/05/01 17:10:57;;;;;;;3.78;2.65;;;;;;;;;;4880765;29;20111;-86
2022/05/01 17:13:56;;;;;;;2.97;2.72;;;;;;;;;;4898483;29;20096;-83
2022/05/01 17:17:09;;;;;;;2.63;2.47;;;;;;;;;;4884633;29;20392;-83
2022/05/01 17:19:39;;;;;;;4.03;3.08;;;;;;;;;;4869842;29;20067;-86
2022/05/01 17:22:10;;;;;;;4.25;3.55;;;;;;;;;;4881051;29;20028;-85
2022/05/01 17:25:18;;;;;;;3.28;3.00;;;;;;;;;;4879530;29;20128;-84
2022/05/01 17:27:51;;;;;;;4.13;3.72;;;;;;;;;;4841907;29;20045;-83
2022/05/01 17:30:20;;;;;;;3.60;3.30;;;;;;;;;;4841912;29;20508;-81
2022/05/01 17:33:20;;;;;;;4.30;3.33;;;;;;;;;;4842434;29;20401;-87
2022/05/01 17:35:54;;;;;;;2.97;2.78;;;;;;;;;;4841701;29;20045;-85
2022/05/01 17:38:24;;;;;;;3.78;3.28;;;;;;;;;;4841776;29;20038;-87
2022/05/01 17:40:50;;;;;;;3.67;3.03;;;;;;;;;;4835586;29;20041;-84
2022/05/01 17:43:25;;;;;;;5.00;2.70;;;;;;;;;;4808151;29;20387;-86
2022/05/01 17:45:54;;;;;;;3.40;2.80;;;;;;;;;;4823287;29;20058;-84
2022/05/01 17:48:21;;;;;;;3.33;3.03;;;;;;;;;;4808228;29;20501;-84
2022/05/01 17:50:49;;;;;;;4.18;3.10;;;;;;;;;;4823618;29;20038;-87
2022/05/01 17:53:19;;;;;;;4.53;3.00;;;;;;;;;;4823553;29;20069;-86
2022/05/01 17:55:45;;;;;;;2.92;2.72;;;;;;;;;;4823829;29;20111;-88
2022/05/01 17:58:11;;;;;;;2.45;2.25;;;;;;;;;;4839514;29;20048;-82
2022/05/01 18:00:54;;;;;;;5.50;2.63;;;;;;;;;;4861926;29;20030;-83
2022/05/01 18:03:32;;;;;;;2.88;2.65;;;;;;;;;;4860612;29;20396;-83
2022/05/01 18:12:04;;;;;;;3.88;3.10;;;;;;;;;;4861681;29;20032;-81
2022/05/01 18:14:58;;;;;;;3.83;3.33;;;;;;;;;;4864047;29;20036;-81
2022/05/01 18:17:27;;;;;;;4.22;3.00;;;;;;;;;;4880393;29;20452;-82
2022/05/01 18:20:07;;;;;;;3.20;2.90;;;;;;;;;;4880117;29;20029;-85
2022/05/01 18:23:03;;;;;;;3.20;2.95;;;;;;;;;;4880325;29;20551;-83
2022/05/01 18:25:49;;;;;;;3.22;2.92;;;;;;;;;;4878642;29;20037;-82
2022/05/01 18:30:10;;;;;;;7.68;3.47;;;;;;;;;;4878572;29;20065;-84
2022/05/01 18:31:25;;;;;;;7.40;3.05;;;;;;;;;;4879509;29;20037;-83
2022/05/01 18:34:27;;;;;;;3.20;2.90;;;;;;;;;;4879510;29;20053;-82
2022/05/01 18:36:55;;;;;;;3.58;3.00;;;;;;;;;;4878442;29;20448;-81
2022/05/01 18:39:35;;;;;;;3.85;2.88;;;;;;;;;;4879827;29;20066;-81
2022/05/01 18:42:03;;;;;;;3.13;2.83;;;;;;;;;;4879490;29;20022;-81
2022/05/01 18:44:31;;;;;;;3.20;2.78;;;;;;;;;;4879696;29;20044;-82
2022/05/01 18:46:59;;;;;;;2.90;2.70;;;;;;;;;;4879531;29;20048;-84
2022/05/01 18:49:28;;;;;;;3.67;2.80;;;;;;;;;;4879946;29;20040;-82
2022/05/01 18:51:54;;;;;;;4.70;3.60;;;;;;;;;;4879387;29;20043;-82
2022/05/01 18:54:22;;;;;;;4.10;3.67;;;;;;;;;;4884527;29;20053;-81
2022/05/01 18:56:50;;;;;;;3.53;3.22;;;;;;;;;;4898260;29;20039;-81
2022/05/01 18:59:18;;;;;;;3.90;2.83;;;;;;;;;;4896875;29;20024;-81
2022/05/01 19:01:44;;;;;;;4.18;3.40;;;;;;;;;;4898530;29;20025;-87
2022/05/01 19:04:09;;;;;;;3.05;2.83;;;;;;;;;;4899149;29;20031;-85
2022/05/01 19:07:00;;;;;;;2.97;2.65;;;;;;;;;;4898788;29;20108;-86
2022/05/01 19:09:54;;;;;;;3.53;3.22;;;;;;;;;;4898059;29;20027;-85
2022/05/01 19:12:29;;;;;;;3.17;2.90;;;;;;;;;;4898235;29;20029;-84
2022/05/01 19:15:19;;;;;;;3.40;2.88;;;;;;;;;;4898033;29;20025;-87
2022/05/01 19:17:48;;;;;;;4.00;3.70;;;;;;;;;;4898115;29;20468;-86
2022/05/01 19:20:27;;;;;;;3.53;3.22;;;;;;;;;;4898602;29;20127;-85
2022/05/01 19:23:09;;;;;;;4.22;3.58;;;;;;;;;;4898162;29;20028;-82
2022/05/01 19:29:16;;;;;;;3.60;3.30;;;;;;;;;;4898196;29;20071;-85
2022/05/01 19:31:57;;;;;;;5.47;3.30;;;;;;;;;;4897977;29;20024;-84
2022/05/01 19:34:43;;;;;;;4.50;3.08;;;;;;;;;;4898232;29;20035;-84
2022/05/01 19:37:16;;;;;;;3.40;3.10;;;;;;;;;;4899892;29;20388;-83
2022/05/01 19:40:04;;;;;;;3.90;3.60;;;;;;;;;;4901513;29;20031;-82
2022/05/01 19:42:39;;;;;;;4.13;3.53;;;;;;;;;;4901416;29;20036;-84
2022/05/01 19:45:05;;;;;;;6.75;3.80;;;;;;;;;;4901328;29;20077;-86
2022/05/01 19:53:51;;;;;;;3.88;3.38;;;;;;;;;;4899305;29;20067;-85
2022/05/01 19:56:23;;;;;;;3.20;3.00;;;;;;;;;;4901448;29;20040;-84
2022/05/01 19:58:51;;;;;;;4.38;3.58;;;;;;;;;;4901157;29;20115;-85
2022/05/01 20:01:18;;;;;;;3.95;3.65;;;;;;;;;;4900866;29;20029;-85
2022/05/01 20:03:46;;;;;;;4.15;3.40;;;;;;;;;;4901329;29;20025;-87
2022/05/01 20:06:13;;;;;;;4.80;3.85;;;;;;;;;;4901495;29;20033;-87
2022/05/01 20:08:42;;;;;;;3.92;3.42;;;;;;;;;;4901134;29;20029;-91
2022/05/01 20:11:08;;;;;;;5.82;4.00;;;;;;;;;;4901207;29;20056;-86
2022/05/01 20:13:34;;;;;;;3.70;3.40;;;;;;;;;;4901413;29;20535;-89
2022/05/01 20:16:39;;;;;;;4.35;3.85;;;;;;;;;;4901183;29;20112;-89
2022/05/01 20:19:21;;;;;;;3.83;2.92;;;;;;;;;;4899977;29;20407;-90
2022/05/01 20:22:06;;;;;;;3.63;3.33;;;;;;;;;;4899483;29;20055;-88
2022/05/01 20:25:02;;;;;;;4.03;3.63;;;;;;;;;;4901047;29;20103;-88
2022/05/01 20:27:35;;;;;;;4.28;3.88;;;;;;;;;;4900882;29;20040;-85
2022/05/01 20:30:18;;;;;;;5.35;3.80;;;;;;;;;;4900700;29;20033;-90
2022/05/01 20:32:44;;;;;;;6.53;3.80;;;;;;;;;;4900743;29;20036;-87
2022/05/01 20:35:12;;;;;;;3.60;3.15;;;;;;;;;;4900567;29;20392;-83
2022/05/01 20:38:08;;;;;;;3.50;3.17;;;;;;;;;;4900633;29;20041;-82
2022/05/01 20:40:34;;;;;;;3.75;3.45;;;;;;;;;;4900232;29;20477;-84
2022/05/01 20:43:14;;;;;;;4.00;3.70;;;;;;;;;;4900273;29;20071;-85
2022/05/01 20:46:09;;;;;;;4.20;3.80;;;;;;;;;;4900276;29;20499;-82
2022/05/01 20:48:43;;;;;;;4.35;3.70;;;;;;;;;;4899733;29;20420;-81
2022/05/01 20:51:11;;;;;;;3.25;3.00;;;;;;;;;;4900274;29;20060;-83
2022/05/01 20:53:42;;;;;;;3.40;3.10;;;;;;;;;;4900406;29;20056;-84
2022/05/01 20:56:09;;;;;;;6.32;3.83;;;;;;;;;;4899753;29;20077;-82
2022/05/01 20:58:36;;;;;;;4.40;4.00;;;;;;;;;;4899939;29;20032;-84
2022/05/01 21:01:04;;;;;;;4.60;3.50;;;;;;;;;;4898181;29;20388;-82
2022/05/01 21:03:32;;;;;;;5.05;3.58;;;;;;;;;;4899607;29;20029;-83
2022/05/01 21:05:59;;;;;;;4.43;3.28;;;;;;;;;;4899737;29;20029;-84
2022/05/01 21:08:25;;;;;;;3.35;2.83;;;;;;;;;;4899799;29;20024;-82
2022/05/01 21:10:53;;;;;;;3.55;3.25;;;;;;;;;;4899996;29;20486;-83
2022/05/01 21:13:20;;;;;;;3.15;2.90;;;;;;;;;;4900103;29;20067;-84
2022/05/01 21:15:46;;;;;;;3.40;3.10;;;;;;;;;;4899738;29;20032;-84
2022/05/01 21:18:12;;;;;;;3.47;3.00;;;;;;;;;;4899767;29;20115;-85
2022/05/01 21:20:38;;;;;;;6.35;3.15;;;;;;;;;;4899725;29;20666;-84
2022/05/01 21:23:05;;;;;;;2.95;2.72;;;;;;;;;;4899606;29;20045;-85
2022/05/01 21:25:31;;;;;;;5.63;2.97;;;;;;;;;;4899650;29;20043;-82
2022/05/01 21:27:57;;;;;;;3.60;3.22;;;;;;;;;;4899765;29;20036;-82
2022/05/01 21:33:07;;;;;;;5.78;3.38;;;;;;;;;;4899241;29;20128;-85
2022/05/01 21:35:32;;;;;;;4.38;3.45;;;;;;;;;;4899596;29;20068;-83
2022/05/01 21:37:58;;;;;;;3.40;3.10;;;;;;;;;;4899474;29;20242;-83
2022/05/01 21:40:24;;;;;;;3.35;2.97;;;;;;;;;;4899307;29;20029;-83
2022/05/01 21:42:50;;;;;;;4.28;3.20;;;;;;;;;;4899375;29;20031;-82
2022/05/01 21:45:16;;;;;;;4.15;2.97;;;;;;;;;;4899200;29;20104;-83
2022/05/01 21:47:41;;;;;;;3.78;3.47;;;;;;;;;;4899326;29;20387;-82
2022/05/01 21:50:07;;;;;;;3.58;3.28;;;;;;;;;;4899289;29;20107;-81
2022/05/01 21:52:33;;;;;;;3.58;3.03;;;;;;;;;;4898909;29;20032;-81
2022/05/01 21:54:58;;;;;;;4.53;3.60;;;;;;;;;;4898899;29;20123;-84
2022/05/01 21:57:24;;;;;;;3.90;3.60;;;;;;;;;;4899120;29;20060;-85
2022/05/01 21:59:51;;;;;;;3.20;2.75;;;;;;;;;;4898185;29;20379;-85
2022/05/01 22:02:16;;;;;;;3.30;3.00;;;;;;;;;;4898640;29;20031;-83
2022/05/01 22:04:42;;;;;;;4.15;3.78;;;;;;;;;;4898895;29;20028;-84
2022/05/01 22:07:08;;;;;;;3.83;3.33;;;;;;;;;;4899006;29;20043;-84
2022/05/01 22:09:34;;;;;;;6.00;3.63;;;;;;;;;;4897439;29;20092;-84
2022/05/01 22:12:00;;;;;;;4.05;3.58;;;;;;;;;;4898953;29;20060;-82
2022/05/01 22:14:26;;;;;;;3.80;3.50;;;;;;;;;;4898712;29;20028;-82
2022/05/01 22:17:08;;;;;;;5.97;3.85;;;;;;;;;;4898690;29;20029;-82
2022/05/01 22:19:44;;;;;;;4.15;3.30;;;;;;;;;;4898701;29;20168;-82
2022/05/01 22:22:12;;;;;;;3.80;3.20;;;;;;;;;;4898570;29;20119;-84
2022/05/01 22:24:38;;;;;;;3.33;3.03;;;;;;;;;;4898767;29;20543;-87
2022/05/01 22:27:10;;;;;;;3.83;3.42;;;;;;;;;;4898499;29;20498;-86
2022/05/01 22:29:36;;;;;;;3.58;3.08;;;;;;;;;;4897560;29;20081;-83
2022/05/01 22:32:03;;;;;;;4.72;3.80;;;;;;;;;;4898912;29;20112;-83
2022/05/01 22:34:29;;;;;;;3.35;3.05;;;;;;;;;;4898534;29;20037;-83
2022/05/01 22:39:39;;;;;;;3.60;3.22;;;;;;;;;;4898718;29;20048;-85
2022/05/01 22:42:05;;;;;;;3.33;3.03;;;;;;;;;;4898370;29;20032;-85
2022/05/01 22:44:31;;;;;;;4.65;3.53;;;;;;;;;;4898559;29;20039;-88
2022/05/01 22:46:56;;;;;;;3.55;3.25;;;;;;;;;;4897798;29;20032;-84
2022/05/01 22:54:43;;;;;;;6.30;3.70;;;;;;;;;;5959925;23;20028;31
